KYKM/YKM METAR and TAF weather

Enter ICAO airport designator
Station Type Date Time Source
KYKM METAR 2020/06/06 02:53 UTC NOAA

KYKM 060253Z 32010G17KT 10SM SCT065 18/08 A2962 RMK AO2 SLP026 T01830083 53003


Station Type Date Time Source
KYKM Decoded METAR 2020/06/06 02:53 UTC NOAA

YAKIMA AIR TERMINAL, WA, United States (KYKM) 46-34N 120-32W 324M
Jun 05, 2020 - 10:53 PM EDT / 2020.06.06 0253 UTC
Wind: from the NW (320 degrees) at 12 MPH (10 KT) gusting to 20 MPH (17 KT):0
Visibility: 10 mile(s):0
Sky conditions: partly cloudy
Temperature: 64.9 F (18.3 C)
Dew Point: 46.9 F (8.3 C)
Relative Humidity: 52%
Pressure (altimeter): 29.62 in. Hg (1003 hPa)
Pressure tendency: 0.01 inches (0.3 hPa) higher than three hours ago
ob: KYKM 060253Z 32010G17KT 10SM SCT065 18/08 A2962 RMK AO2 SLP026 T01830083 53003
cycle: 3

Station Type Date Time Source
KYKM TAF 2020/06/05 18:22 UTC NOAA

TAF KYKM 051720Z 0518/0618 VRB06KT P6SM SCT090 BKN150
FM060400 28007KT P6SM SCT090
FM061500 31008KT P6SM BKN090

Example: see airport list